Time;durP1;ratioP1;P1;durP2;ratioP2;P2;SDS_P1;SDS_P2;PMS_P1;PMS_P2;Temp;Humidity;BMP_temperature;BMP_pressure;BME280_temperature;BME280_humidity;BME280_pressure;Samples;Min_cycle;Max_cycle;Signal;HPM_P1;HPM_P2
2023/04/22 00:00:46;;;;;;;5.13;3.80;;;;;;;;;;5032646;28;20049;-77
2023/04/22 00:03:13;;;;;;;8.35;3.20;;;;;;;;;;5032867;28;20037;-76
2023/04/22 00:05:40;;;;;;;4.55;2.80;;;;;;;;;;5036028;28;20028;-76
2023/04/22 00:08:06;;;;;;;5.28;3.60;;;;;;;;;;5035643;28;20453;-76
2023/04/22 00:10:32;;;;;;;5.80;3.78;;;;;;;;;;4994351;28;20033;-77
2023/04/22 00:12:59;;;;;;;3.58;3.13;;;;;;;;;;4996576;28;20030;-77
2023/04/22 00:15:25;;;;;;;3.67;3.17;;;;;;;;;;4996693;28;20034;-76
2023/04/22 00:17:52;;;;;;;3.70;3.30;;;;;;;;;;4996779;28;20022;-76
2023/04/22 00:20:20;;;;;;;4.05;2.90;;;;;;;;;;4995600;28;20031;-76
2023/04/22 00:22:46;;;;;;;6.55;3.35;;;;;;;;;;4978378;28;20046;-76
2023/04/22 00:25:14;;;;;;;4.57;3.80;;;;;;;;;;4978906;28;20022;-76
2023/04/22 00:27:40;;;;;;;6.90;3.38;;;;;;;;;;4996257;28;20026;-76
2023/04/22 00:30:07;;;;;;;5.35;3.60;;;;;;;;;;4980501;28;20034;-75
2023/04/22 00:32:33;;;;;;;3.97;3.28;;;;;;;;;;4982432;28;20030;-76
2023/04/22 00:34:59;;;;;;;6.03;3.30;;;;;;;;;;4981963;28;20456;-77
2023/04/22 00:37:25;;;;;;;14.25;3.85;;;;;;;;;;4998906;28;20030;-77
2023/04/22 00:39:51;;;;;;;3.60;2.88;;;;;;;;;;4997242;28;20022;-78
2023/04/22 00:42:17;;;;;;;3.63;2.50;;;;;;;;;;5005567;28;20037;-77
2023/04/22 00:44:43;;;;;;;4.25;3.17;;;;;;;;;;5007889;28;20525;-77
2023/04/22 00:47:09;;;;;;;5.30;3.10;;;;;;;;;;5016758;28;20093;-77
2023/04/22 00:49:36;;;;;;;5.18;3.08;;;;;;;;;;5018771;28;20026;-76
2023/04/22 00:52:02;;;;;;;6.45;3.08;;;;;;;;;;5016706;28;20045;-77
2023/04/22 00:54:29;;;;;;;4.53;3.13;;;;;;;;;;4999690;28;20537;-76
2023/04/22 00:56:57;;;;;;;3.53;2.90;;;;;;;;;;5016778;28;20076;-77
2023/04/22 00:59:23;;;;;;;3.33;3.03;;;;;;;;;;5016487;28;20060;-78
2023/04/22 01:01:49;;;;;;;3.35;2.47;;;;;;;;;;5042489;28;20355;-77
2023/04/22 01:04:15;;;;;;;3.08;2.80;;;;;;;;;;5023515;28;20025;-77
2023/04/22 01:06:42;;;;;;;3.28;2.92;;;;;;;;;;5022959;28;20096;-76
2023/04/22 01:09:09;;;;;;;3.25;2.70;;;;;;;;;;5042267;28;20021;-76
2023/04/22 01:11:35;;;;;;;3.95;2.90;;;;;;;;;;5023301;28;20021;-75
2023/04/22 01:14:02;;;;;;;3.83;3.17;;;;;;;;;;5022433;28;20017;-77
2023/04/22 01:16:30;;;;;;;2.92;2.63;;;;;;;;;;5039476;28;20079;-78
2023/04/22 01:18:56;;;;;;;5.72;2.75;;;;;;;;;;5040112;28;20025;-76
2023/04/22 01:21:23;;;;;;;3.03;2.70;;;;;;;;;;5022390;28;20213;-79
2023/04/22 01:23:50;;;;;;;2.60;2.40;;;;;;;;;;5038856;28;20034;-78
2023/04/22 01:26:16;;;;;;;3.10;2.28;;;;;;;;;;5022447;28;20251;-77
2023/04/22 01:28:42;;;;;;;2.70;2.45;;;;;;;;;;5020724;28;20052;-77
2023/04/22 01:31:08;;;;;;;4.68;2.78;;;;;;;;;;5022022;28;20060;-76
2023/04/22 01:33:34;;;;;;;5.55;3.00;;;;;;;;;;5040641;28;20355;-77
2023/04/22 01:36:00;;;;;;;3.22;2.65;;;;;;;;;;5039667;28;20060;-78
2023/04/22 01:38:27;;;;;;;5.20;2.17;;;;;;;;;;5038977;28;20770;-76
2023/04/22 01:40:53;;;;;;;4.15;3.03;;;;;;;;;;5021533;28;20025;-77
2023/04/22 01:43:19;;;;;;;4.07;2.15;;;;;;;;;;5022442;28;20052;-75
2023/04/22 01:45:45;;;;;;;6.72;2.47;;;;;;;;;;5021755;28;20025;-77
2023/04/22 01:48:11;;;;;;;3.97;2.22;;;;;;;;;;5038385;28;20319;-76
2023/04/22 01:50:37;;;;;;;3.35;2.78;;;;;;;;;;5021608;28;20056;-75
2023/04/22 01:53:03;;;;;;;3.05;2.40;;;;;;;;;;5021652;28;20064;-78
2023/04/22 01:55:34;;;;;;;6.03;2.30;;;;;;;;;;5025311;28;20333;-77
2023/04/22 01:58:00;;;;;;;3.63;2.78;;;;;;;;;;5028527;28;20029;-76
2023/04/22 02:00:26;;;;;;;2.95;2.33;;;;;;;;;;5019775;28;20045;-75
2023/04/22 02:02:52;;;;;;;3.13;2.30;;;;;;;;;;5018281;28;20048;-76
2023/04/22 02:05:18;;;;;;;4.15;2.63;;;;;;;;;;5018371;28;20365;-77
2023/04/22 02:07:44;;;;;;;5.28;3.00;;;;;;;;;;5021464;28;20036;-77
2023/04/22 02:10:11;;;;;;;3.75;2.42;;;;;;;;;;5020386;28;20030;-77
2023/04/22 02:12:37;;;;;;;4.95;2.38;;;;;;;;;;5020816;28;20033;-76
2023/04/22 02:15:03;;;;;;;3.78;2.75;;;;;;;;;;5024415;28;20017;-76
2023/04/22 02:17:29;;;;;;;2.40;2.20;;;;;;;;;;5042100;28;20026;-76
2023/04/22 02:19:55;;;;;;;2.90;2.03;;;;;;;;;;5023986;28;20017;-77
2023/04/22 02:22:23;;;;;;;2.85;2.42;;;;;;;;;;5041098;28;20478;-78
2023/04/22 02:24:49;;;;;;;3.65;2.40;;;;;;;;;;5022889;28;20116;-78
2023/04/22 02:27:15;;;;;;;2.05;1.95;;;;;;;;;;5020339;28;20034;-78
2023/04/22 02:29:41;;;;;;;2.67;2.42;;;;;;;;;;5020803;28;20025;-78
2023/04/22 02:32:07;;;;;;;2.45;2.22;;;;;;;;;;5004331;28;20318;-77
2023/04/22 02:34:33;;;;;;;4.93;2.35;;;;;;;;;;5021422;28;20021;-78
2023/04/22 02:36:59;;;;;;;3.53;2.30;;;;;;;;;;5022128;28;20045;-79
2023/04/22 02:39:25;;;;;;;3.72;2.65;;;;;;;;;;5003698;28;20064;-78
2023/04/22 02:41:51;;;;;;;4.05;2.47;;;;;;;;;;5003717;28;20034;-77
2023/04/22 02:44:17;;;;;;;5.22;2.45;;;;;;;;;;5020712;28;20367;-78
2023/04/22 02:46:43;;;;;;;2.50;2.00;;;;;;;;;;5036022;28;20272;-75
2023/04/22 02:49:09;;;;;;;2.65;2.35;;;;;;;;;;5020042;28;20225;-75
2023/04/22 02:51:37;;;;;;;3.55;2.42;;;;;;;;;;5021397;28;20029;-75
2023/04/22 02:54:03;;;;;;;5.18;2.15;;;;;;;;;;5021948;28;20033;-75
2023/04/22 02:56:30;;;;;;;3.15;2.80;;;;;;;;;;5041667;28;20209;-76
2023/04/22 02:58:56;;;;;;;6.68;2.28;;;;;;;;;;5021879;28;20033;-76
2023/04/22 03:01:22;;;;;;;3.33;2.15;;;;;;;;;;5040893;28;20103;-76
2023/04/22 03:03:48;;;;;;;6.50;2.25;;;;;;;;;;5041660;28;20408;-76
2023/04/22 03:06:14;;;;;;;1.75;1.65;;;;;;;;;;5024204;28;20013;-76
2023/04/22 03:08:40;;;;;;;2.30;1.95;;;;;;;;;;5041246;28;20085;-76
2023/04/22 03:11:06;;;;;;;3.63;2.17;;;;;;;;;;5040763;28;20032;-75
2023/04/22 03:13:32;;;;;;;2.17;2.00;;;;;;;;;;5040779;28;20493;-75
2023/04/22 03:15:58;;;;;;;2.58;1.88;;;;;;;;;;5041270;28;20041;-76
2023/04/22 03:18:24;;;;;;;3.22;2.17;;;;;;;;;;5023167;28;20092;-76
2023/04/22 03:20:50;;;;;;;2.28;2.08;;;;;;;;;;5023906;28;20059;-76
2023/04/22 03:23:19;;;;;;;1.92;1.83;;;;;;;;;;5024979;28;20329;-75
2023/04/22 03:25:46;;;;;;;2.83;2.13;;;;;;;;;;5042553;28;20029;-76
2023/04/22 03:28:12;;;;;;;1.88;1.77;;;;;;;;;;5043061;28;20054;-76
2023/04/22 03:30:38;;;;;;;2.25;2.00;;;;;;;;;;5043254;28;20056;-76
2023/04/22 03:33:04;;;;;;;4.50;2.33;;;;;;;;;;5042465;28;20029;-75
2023/04/22 03:35:30;;;;;;;2.75;1.95;;;;;;;;;;5024300;28;20036;-76
2023/04/22 03:37:56;;;;;;;1.80;1.70;;;;;;;;;;5042286;28;20321;-76
2023/04/22 03:40:22;;;;;;;2.28;1.98;;;;;;;;;;5043381;28;20059;-76
2023/04/22 03:42:48;;;;;;;5.65;1.80;;;;;;;;;;5024974;28;20278;-76
2023/04/22 03:45:14;;;;;;;3.88;2.20;;;;;;;;;;5042457;28;20089;-76
2023/04/22 03:47:40;;;;;;;2.20;1.55;;;;;;;;;;5042026;28;20021;-76
2023/04/22 03:50:06;;;;;;;2.65;2.13;;;;;;;;;;5041650;28;20033;-76
2023/04/22 03:52:32;;;;;;;2.83;1.73;;;;;;;;;;5024360;28;20021;-76
2023/04/22 03:54:58;;;;;;;2.40;1.88;;;;;;;;;;5042089;28;20029;-76
2023/04/22 03:57:24;;;;;;;2.25;1.75;;;;;;;;;;5041668;28;20027;-75
2023/04/22 03:59:50;;;;;;;3.17;2.10;;;;;;;;;;5040115;28;20400;-75
2023/04/22 04:02:16;;;;;;;11.43;2.22;;;;;;;;;;5039721;28;20068;-76
2023/04/22 04:04:43;;;;;;;2.10;1.75;;;;;;;;;;5022475;28;20049;-75
2023/04/22 04:07:09;;;;;;;3.13;2.85;;;;;;;;;;5022268;28;20030;-76
2023/04/22 04:09:35;;;;;;;2.15;1.95;;;;;;;;;;5039862;28;20057;-76
2023/04/22 04:12:02;;;;;;;6.55;2.95;;;;;;;;;;5022052;28;20037;-75
2023/04/22 04:14:28;;;;;;;2.60;2.05;;;;;;;;;;5020090;28;20025;-76
2023/04/22 04:16:54;;;;;;;2.42;2.05;;;;;;;;;;5029996;28;20029;-75
2023/04/22 04:19:20;;;;;;;3.72;2.75;;;;;;;;;;5029797;28;20474;-75
2023/04/22 04:21:46;;;;;;;4.07;2.13;;;;;;;;;;5028408;28;20524;-76
2023/04/22 04:24:12;;;;;;;3.00;2.30;;;;;;;;;;5011537;28;20120;-76
2023/04/22 04:26:38;;;;;;;4.90;2.13;;;;;;;;;;5013184;28;20039;-76
2023/04/22 04:29:05;;;;;;;2.80;2.60;;;;;;;;;;5032951;28;20022;-76
2023/04/22 04:31:31;;;;;;;2.33;2.10;;;;;;;;;;5015103;28;20430;-76
2023/04/22 04:33:57;;;;;;;4.65;1.85;;;;;;;;;;5015300;28;20028;-77
2023/04/22 04:36:27;;;;;;;7.68;1.92;;;;;;;;;;5034322;28;20029;-75
2023/04/22 04:38:54;;;;;;;6.45;2.45;;;;;;;;;;5016585;28;20017;-76
2023/04/22 04:41:20;;;;;;;3.50;2.47;;;;;;;;;;5017116;28;20017;-76
2023/04/22 04:43:46;;;;;;;3.85;2.88;;;;;;;;;;5034832;28;20543;-76
2023/04/22 04:46:13;;;;;;;4.55;2.65;;;;;;;;;;5035875;28;20364;-76
2023/04/22 04:48:41;;;;;;;2.55;2.30;;;;;;;;;;5015723;28;20060;-76
2023/04/22 04:51:07;;;;;;;3.53;2.55;;;;;;;;;;5015722;28;20415;-76
2023/04/22 04:53:33;;;;;;;3.17;1.95;;;;;;;;;;5015937;28;20097;-76
2023/04/22 04:55:59;;;;;;;3.25;2.53;;;;;;;;;;5033509;28;20041;-76
2023/04/22 04:58:25;;;;;;;5.05;2.60;;;;;;;;;;5033855;28;20028;-76
2023/04/22 05:00:51;;;;;;;2.92;2.17;;;;;;;;;;5017759;28;20118;-76
2023/04/22 05:03:17;;;;;;;2.92;2.50;;;;;;;;;;5019228;28;20482;-76
2023/04/22 05:05:45;;;;;;;2.38;2.00;;;;;;;;;;5034943;28;20389;-76
2023/04/22 05:08:11;;;;;;;3.53;2.53;;;;;;;;;;5017145;28;20052;-76
2023/04/22 05:10:37;;;;;;;2.72;2.25;;;;;;;;;;5017936;28;20174;-77
2023/04/22 05:13:03;;;;;;;3.40;2.35;;;;;;;;;;5034279;28;20022;-76
2023/04/22 05:15:29;;;;;;;2.83;2.35;;;;;;;;;;5035472;28;20378;-76
2023/04/22 05:17:55;;;;;;;2.80;2.17;;;;;;;;;;5036348;28;20061;-76
2023/04/22 05:20:21;;;;;;;2.40;2.17;;;;;;;;;;5018319;28;20505;-76
2023/04/22 05:22:47;;;;;;;2.15;1.95;;;;;;;;;;5035121;28;20049;-76
2023/04/22 05:25:13;;;;;;;2.60;2.28;;;;;;;;;;5016143;28;20477;-76
2023/04/22 05:27:41;;;;;;;3.53;2.25;;;;;;;;;;5032705;28;20452;-76
2023/04/22 05:30:07;;;;;;;2.30;2.10;;;;;;;;;;5032610;28;20029;-76
2023/04/22 05:32:33;;;;;;;2.30;1.98;;;;;;;;;;5033181;28;20053;-76
2023/04/22 05:34:59;;;;;;;5.43;2.40;;;;;;;;;;5032661;28;20151;-76
2023/04/22 05:37:25;;;;;;;2.03;1.73;;;;;;;;;;5031837;28;20470;-76
2023/04/22 05:39:51;;;;;;;1.65;1.55;;;;;;;;;;5033711;28;20029;-76
2023/04/22 05:42:18;;;;;;;1.83;1.70;;;;;;;;;;5033520;28;20056;-76
2023/04/22 05:44:44;;;;;;;1.70;1.60;;;;;;;;;;5032122;28;20018;-76
2023/04/22 05:47:10;;;;;;;2.13;2.00;;;;;;;;;;5032197;28;20505;-77
2023/04/22 05:49:36;;;;;;;3.70;1.35;;;;;;;;;;5033077;28;20025;-76
2023/04/22 05:52:02;;;;;;;2.42;1.80;;;;;;;;;;5034200;28;20127;-76
2023/04/22 05:54:28;;;;;;;3.30;1.67;;;;;;;;;;5032973;28;20032;-76
2023/04/22 05:56:57;;;;;;;1.98;1.75;;;;;;;;;;5033123;28;20092;-77
2023/04/22 05:59:23;;;;;;;2.08;1.60;;;;;;;;;;5031792;28;20398;-77
2023/04/22 06:01:49;;;;;;;2.20;2.00;;;;;;;;;;5032660;28;20037;-76
2023/04/22 06:04:15;;;;;;;3.33;1.67;;;;;;;;;;5016319;28;20029;-76
2023/04/22 06:06:41;;;;;;;2.38;1.77;;;;;;;;;;5014721;28;20025;-76
2023/04/22 06:09:08;;;;;;;1.52;1.42;;;;;;;;;;5032587;28;20037;-77
2023/04/22 06:11:34;;;;;;;2.13;1.88;;;;;;;;;;5034911;28;20044;-76
2023/04/22 06:14:00;;;;;;;4.28;1.75;;;;;;;;;;5035028;28;20041;-76
2023/04/22 06:16:27;;;;;;;1.95;1.73;;;;;;;;;;5034331;28;20028;-77
2023/04/22 06:18:53;;;;;;;2.42;1.75;;;;;;;;;;5034799;28;20393;-77
2023/04/22 06:21:19;;;;;;;2.00;1.42;;;;;;;;;;5014503;28;20025;-76
2023/04/22 06:23:45;;;;;;;10.77;5.15;;;;;;;;;;5014032;28;20026;-76
2023/04/22 06:26:11;;;;;;;7.07;2.05;;;;;;;;;;5032092;28;20052;-76
2023/04/22 06:28:38;;;;;;;6.40;3.45;;;;;;;;;;5014271;28;20465;-76
2023/04/22 06:31:04;;;;;;;4.20;3.22;;;;;;;;;;5033257;28;20575;-76
2023/04/22 06:33:30;;;;;;;6.32;3.25;;;;;;;;;;5034532;28;20477;-77
2023/04/22 06:35:56;;;;;;;3.28;2.55;;;;;;;;;;5031628;28;20048;-76
2023/04/22 06:38:22;;;;;;;3.58;2.60;;;;;;;;;;5013560;28;20056;-76
2023/04/22 06:40:48;;;;;;;8.98;4.10;;;;;;;;;;5031641;28;20026;-76
2023/04/22 06:43:14;;;;;;;5.38;4.22;;;;;;;;;;5014304;28;20112;-76
2023/04/22 06:45:41;;;;;;;4.88;4.32;;;;;;;;;;5031967;28;20532;-77
2023/04/22 06:48:07;;;;;;;9.65;4.97;;;;;;;;;;5014163;28;20397;-77
2023/04/22 06:50:36;;;;;;;15.35;6.95;;;;;;;;;;5014695;28;20017;-76
2023/04/22 06:53:02;;;;;;;6.30;4.15;;;;;;;;;;5031702;28;20510;-77
2023/04/22 06:55:28;;;;;;;8.32;4.45;;;;;;;;;;5032327;28;20017;-76
2023/04/22 06:57:55;;;;;;;9.10;6.13;;;;;;;;;;5031258;28;20033;-76
2023/04/22 07:00:21;;;;;;;17.38;8.98;;;;;;;;;;5031330;28;20505;-77
2023/04/22 07:02:47;;;;;;;10.43;6.65;;;;;;;;;;5014087;28;20037;-76
2023/04/22 07:05:13;;;;;;;3.00;2.58;;;;;;;;;;5013673;28;20363;-76
2023/04/22 07:07:39;;;;;;;6.15;4.10;;;;;;;;;;5033262;28;20096;-76
2023/04/22 07:10:05;;;;;;;12.32;5.63;;;;;;;;;;5032830;28;20032;-76
2023/04/22 07:12:31;;;;;;;24.45;12.73;;;;;;;;;;5015617;28;20044;-76
2023/04/22 07:14:57;;;;;;;17.98;8.13;;;;;;;;;;5035715;28;20022;-76
2023/04/22 07:17:23;;;;;;;6.88;3.75;;;;;;;;;;5035577;28;20409;-77
2023/04/22 07:19:50;;;;;;;5.97;3.63;;;;;;;;;;5014749;28;20025;-76
2023/04/22 07:22:16;;;;;;;7.80;4.13;;;;;;;;;;5014709;28;20033;-76
2023/04/22 07:24:42;;;;;;;4.45;3.20;;;;;;;;;;5002014;28;20529;-76
2023/04/22 07:27:08;;;;;;;5.03;3.50;;;;;;;;;;4998519;28;20037;-76
2023/04/22 07:29:34;;;;;;;3.47;2.83;;;;;;;;;;5000709;28;20025;-76
2023/04/22 07:32:00;;;;;;;6.68;4.00;;;;;;;;;;5006540;28;20030;-77
2023/04/22 07:34:26;;;;;;;8.05;4.55;;;;;;;;;;5024222;28;20152;-77
2023/04/22 07:36:52;;;;;;;4.53;3.38;;;;;;;;;;5018948;28;20153;-77
2023/04/22 07:39:18;;;;;;;2.75;2.50;;;;;;;;;;5013537;28;20120;-77
2023/04/22 07:41:44;;;;;;;4.22;3.10;;;;;;;;;;4996134;28;20050;-76
2023/04/22 07:44:15;;;;;;;4.13;2.72;;;;;;;;;;5014524;28;20026;-76
2023/04/22 07:46:41;;;;;;;2.67;2.47;;;;;;;;;;5011372;28;20104;-77
2023/04/22 07:49:07;;;;;;;3.60;3.22;;;;;;;;;;5019635;28;20080;-77
2023/04/22 07:51:33;;;;;;;5.70;3.22;;;;;;;;;;5029894;28;20030;-77
2023/04/22 07:53:59;;;;;;;3.67;2.90;;;;;;;;;;5010532;28;20030;-77
2023/04/22 07:56:25;;;;;;;3.38;2.75;;;;;;;;;;5029708;28;20426;-77
2023/04/22 07:58:51;;;;;;;3.03;2.30;;;;;;;;;;5028822;28;20021;-77
2023/04/22 08:01:17;;;;;;;3.65;3.28;;;;;;;;;;5030424;28;20476;-77
2023/04/22 08:03:43;;;;;;;4.90;3.72;;;;;;;;;;5010850;28;20340;-77
2023/04/22 08:06:09;;;;;;;4.97;2.78;;;;;;;;;;5029210;28;20026;-77
2023/04/22 08:08:35;;;;;;;3.78;2.63;;;;;;;;;;5032333;28;20030;-78
2023/04/22 08:11:01;;;;;;;6.97;4.30;;;;;;;;;;5034594;28;20032;-77
2023/04/22 08:13:27;;;;;;;4.63;3.10;;;;;;;;;;5015584;28;20474;-77
2023/04/22 08:15:53;;;;;;;9.20;3.92;;;;;;;;;;5034836;28;20028;-77
2023/04/22 08:18:19;;;;;;;5.28;3.78;;;;;;;;;;5034135;28;20036;-77
2023/04/22 08:20:46;;;;;;;3.50;3.20;;;;;;;;;;5030722;28;20113;-77
2023/04/22 08:23:12;;;;;;;3.97;3.35;;;;;;;;;;5012441;28;20512;-78
2023/04/22 08:25:38;;;;;;;5.10;3.70;;;;;;;;;;5012515;28;20029;-78
2023/04/22 08:28:04;;;;;;;9.02;4.15;;;;;;;;;;5028206;28;20026;-78
2023/04/22 08:30:30;;;;;;;6.38;4.55;;;;;;;;;;5024444;28;20355;-78
2023/04/22 08:32:56;;;;;;;4.68;3.92;;;;;;;;;;5023928;28;20061;-77
2023/04/22 08:35:22;;;;;;;5.00;3.47;;;;;;;;;;5036905;28;20401;-77
2023/04/22 08:37:48;;;;;;;4.80;4.22;;;;;;;;;;5032440;28;20352;-77
2023/04/22 08:40:14;;;;;;;6.93;3.60;;;;;;;;;;5019762;28;20089;-77
2023/04/22 08:42:41;;;;;;;4.15;3.58;;;;;;;;;;5034295;28;20124;-77
2023/04/22 08:45:08;;;;;;;5.18;3.45;;;;;;;;;;5021600;28;20123;-76
2023/04/22 08:47:34;;;;;;;3.72;3.30;;;;;;;;;;5024106;28;20140;-77
2023/04/22 08:50:02;;;;;;;6.05;3.13;;;;;;;;;;5039124;28;20230;-78
2023/04/22 08:52:29;;;;;;;4.47;2.70;;;;;;;;;;5027412;28;20029;-78
2023/04/22 08:54:55;;;;;;;10.23;2.92;;;;;;;;;;5028204;28;20087;-76
2023/04/22 08:57:21;;;;;;;4.85;2.83;;;;;;;;;;5030241;28;20081;-77
2023/04/22 08:59:49;;;;;;;3.45;3.08;;;;;;;;;;5036547;28;20513;-79
2023/04/22 09:02:21;;;;;;;2.85;2.20;;;;;;;;;;5038538;28;20035;-78
2023/04/22 09:04:49;;;;;;;2.78;2.45;;;;;;;;;;5030048;28;20490;-81
2023/04/22 09:07:19;;;;;;;2.60;2.30;;;;;;;;;;5013201;28;20021;-80
2023/04/22 09:09:46;;;;;;;3.70;2.35;;;;;;;;;;5022548;28;20064;-79
2023/04/22 09:12:12;;;;;;;3.28;2.05;;;;;;;;;;5009340;28;20109;-79
2023/04/22 09:14:39;;;;;;;2.20;2.03;;;;;;;;;;5029275;28;20105;-80
2023/04/22 09:17:05;;;;;;;2.72;2.38;;;;;;;;;;5030364;28;20026;-77
2023/04/22 09:19:31;;;;;;;2.65;2.45;;;;;;;;;;5033063;28;20073;-78
2023/04/22 09:21:58;;;;;;;2.47;2.25;;;;;;;;;;5020074;28;20064;-77
2023/04/22 09:24:24;;;;;;;5.60;2.65;;;;;;;;;;5015130;28;20026;-77
2023/04/22 09:26:50;;;;;;;5.18;2.75;;;;;;;;;;5033506;28;20021;-77
2023/04/22 09:29:16;;;;;;;3.80;2.53;;;;;;;;;;5031329;28;20244;-78
2023/04/22 09:31:48;;;;;;;4.93;2.63;;;;;;;;;;5031727;28;20427;-78
2023/04/22 09:34:14;;;;;;;4.25;2.10;;;;;;;;;;5014003;28;20029;-78
2023/04/22 09:36:42;;;;;;;7.55;4.47;;;;;;;;;;5028675;28;20104;-78
2023/04/22 09:39:08;;;;;;;3.13;2.45;;;;;;;;;;5032241;28;20021;-78
2023/04/22 09:41:38;;;;;;;2.65;2.17;;;;;;;;;;5042172;28;20028;-79
2023/04/22 09:44:05;;;;;;;3.65;2.28;;;;;;;;;;5037706;28;20030;-79
2023/04/22 09:46:32;;;;;;;2.40;2.10;;;;;;;;;;5031009;28;20492;-78
2023/04/22 09:48:59;;;;;;;3.65;1.90;;;;;;;;;;5031132;28;20394;-78
2023/04/22 09:51:29;;;;;;;3.45;1.92;;;;;;;;;;5029423;28;20022;-77
2023/04/22 09:54:04;;;;;;;47.28;23.73;;;;;;;;;;5013539;28;20035;-78
2023/04/22 09:56:42;;;;;;;2.70;2.45;;;;;;;;;;5031057;28;20022;-78
2023/04/22 09:59:08;;;;;;;1.60;1.50;;;;;;;;;;5024132;28;20047;-77
2023/04/22 10:01:40;;;;;;;3.38;2.88;;;;;;;;;;5010686;28;20064;-78
2023/04/22 10:04:08;;;;;;;3.67;2.30;;;;;;;;;;4989835;28;20034;-78
2023/04/22 10:06:34;;;;;;;5.45;1.90;;;;;;;;;;5011406;28;20084;-78
2023/04/22 10:09:01;;;;;;;2.33;1.58;;;;;;;;;;5011278;28;20593;-78
2023/04/22 10:11:27;;;;;;;1.67;1.48;;;;;;;;;;4993189;28;20026;-78
2023/04/22 10:13:54;;;;;;;5.93;3.08;;;;;;;;;;5010997;28;20359;-77
2023/04/22 10:16:21;;;;;;;4.35;2.60;;;;;;;;;;5010150;28;20029;-77
2023/04/22 10:18:47;;;;;;;2.55;2.08;;;;;;;;;;5010842;28;20281;-78
2023/04/22 10:21:13;;;;;;;3.17;1.73;;;;;;;;;;5012199;28;20026;-77
2023/04/22 10:23:44;;;;;;;2.63;2.05;;;;;;;;;;5010231;28;20069;-77
2023/04/22 10:26:11;;;;;;;4.18;2.45;;;;;;;;;;5005344;28;20157;-77
2023/04/22 10:28:41;;;;;;;3.38;2.40;;;;;;;;;;5016376;28;20030;-77
2023/04/22 10:31:20;;;;;;;5.03;2.90;;;;;;;;;;5000761;28;20121;-77
2023/04/22 10:33:46;;;;;;;3.65;2.13;;;;;;;;;;5008525;28;20045;-78
2023/04/22 10:36:12;;;;;;;3.30;2.63;;;;;;;;;;5011371;28;20056;-77
2023/04/22 10:38:40;;;;;;;4.65;2.78;;;;;;;;;;5010425;28;20037;-78
2023/04/22 10:41:06;;;;;;;3.67;1.95;;;;;;;;;;5009194;28;20449;-78
2023/04/22 10:43:42;;;;;;;3.22;1.98;;;;;;;;;;5009635;28;20057;-77
2023/04/22 10:46:28;;;;;;;2.88;1.75;;;;;;;;;;5008904;28;20215;-77
2023/04/22 10:48:55;;;;;;;4.35;2.45;;;;;;;;;;4991493;28;20506;-78
2023/04/22 10:51:51;;;;;;;3.42;2.10;;;;;;;;;;5008239;28;20529;-79
2023/04/22 10:54:26;;;;;;;6.10;4.07;;;;;;;;;;4989729;28;20061;-76
2023/04/22 10:57:02;;;;;;;4.47;1.92;;;;;;;;;;4990268;28;20526;-78
2023/04/22 10:59:28;;;;;;;4.40;2.28;;;;;;;;;;4990547;28;20037;-79
2023/04/22 11:01:54;;;;;;;2.72;2.33;;;;;;;;;;5007067;28;20033;-78
2023/04/22 11:04:23;;;;;;;4.93;2.15;;;;;;;;;;5027274;28;20397;-77
2023/04/22 11:07:08;;;;;;;4.80;2.28;;;;;;;;;;5011044;28;20026;-79
2023/04/22 11:09:38;;;;;;;5.22;2.80;;;;;;;;;;5011657;28;20029;-77
2023/04/22 11:12:28;;;;;;;6.30;2.83;;;;;;;;;;5011622;28;20456;-79
2023/04/22 11:14:53;;;;;;;;;;;;;;;;;;5001348;28;20037;-78
2023/04/22 11:17:20;;;;;;;4.38;1.83;;;;;;;;;;5031747;28;20369;-78
2023/04/22 11:19:46;;;;;;;3.10;1.95;;;;;;;;;;5030229;28;20025;-78
2023/04/22 11:22:13;;;;;;;3.20;1.63;;;;;;;;;;5012042;28;20029;-76
2023/04/22 11:24:39;;;;;;;1.95;1.83;;;;;;;;;;5029436;28;20071;-78
2023/04/22 11:27:05;;;;;;;2.70;2.10;;;;;;;;;;5030802;28;20135;-76
2023/04/22 11:29:31;;;;;;;2.05;1.88;;;;;;;;;;5013355;28;20120;-77
2023/04/22 11:31:57;;;;;;;4.07;2.25;;;;;;;;;;5031226;28;20104;-78
2023/04/22 11:34:24;;;;;;;2.88;1.88;;;;;;;;;;5012725;28;20386;-76
2023/04/22 11:36:50;;;;;;;2.53;2.03;;;;;;;;;;5034190;28;20060;-77
2023/04/22 11:39:17;;;;;;;4.40;2.25;;;;;;;;;;5034072;28;20099;-79
2023/04/22 11:41:43;;;;;;;2.08;1.88;;;;;;;;;;5016451;28;20036;-77
2023/04/22 11:44:09;;;;;;;2.08;1.98;;;;;;;;;;5033734;28;20034;-76
2023/04/22 11:46:38;;;;;;;2.28;1.73;;;;;;;;;;5015656;28;20039;-78
2023/04/22 11:49:04;;;;;;;;;;;;;;;;;;5016463;28;20107;-76
2023/04/22 11:51:30;;;;;;;3.85;1.75;;;;;;;;;;5033286;28;19975;-78
2023/04/22 11:53:58;;;;;;;2.47;2.15;;;;;;;;;;5033357;28;20033;-78
2023/04/22 11:56:24;;;;;;;2.45;2.08;;;;;;;;;;5015396;28;20028;-77
2023/04/22 11:58:50;;;;;;;6.18;1.83;;;;;;;;;;5032853;28;20027;-77
2023/04/22 12:01:17;;;;;;;1.88;1.63;;;;;;;;;;5014255;28;20129;-77
2023/04/22 12:03:43;;;;;;;2.83;1.77;;;;;;;;;;5032911;28;20044;-77
2023/04/22 12:06:09;;;;;;;4.70;1.75;;;;;;;;;;5013464;28;20080;-77
2023/04/22 12:08:38;;;;;;;1.65;1.55;;;;;;;;;;5012123;28;20568;-77
2023/04/22 12:11:05;;;;;;;3.05;1.30;;;;;;;;;;5015129;28;20033;-77
2023/04/22 12:13:33;;;;;;;1.73;1.45;;;;;;;;;;5014757;28;20084;-78
2023/04/22 12:16:03;;;;;;;2.72;1.60;;;;;;;;;;5032946;28;20079;-78
2023/04/22 12:18:37;;;;;;;5.32;2.28;;;;;;;;;;5033036;28;20109;-76
2023/04/22 12:21:13;;;;;;;5.30;2.40;;;;;;;;;;5032879;28;20071;-76
2023/04/22 12:23:49;;;;;;;2.75;2.40;;;;;;;;;;5032555;28;20040;-79
2023/04/22 12:26:16;;;;;;;3.28;1.90;;;;;;;;;;5032818;28;20026;-78
2023/04/22 12:28:42;;;;;;;2.50;1.70;;;;;;;;;;5032366;28;20052;-76
2023/04/22 12:31:09;;;;;;;1.95;1.85;;;;;;;;;;5032715;28;20108;-77
2023/04/22 12:33:35;;;;;;;1.85;1.40;;;;;;;;;;5032506;28;20056;-77
2023/04/22 12:36:01;;;;;;;1.60;1.42;;;;;;;;;;5032529;28;20077;-77
2023/04/22 12:38:27;;;;;;;1.55;1.45;;;;;;;;;;5032256;28;20029;-78
2023/04/22 12:40:54;;;;;;;1.58;1.20;;;;;;;;;;5032209;28;20036;-76
2023/04/22 12:43:20;;;;;;;1.60;1.30;;;;;;;;;;5031875;28;20096;-78
2023/04/22 12:45:46;;;;;;;2.45;1.33;;;;;;;;;;5032148;28;20100;-77
2023/04/22 12:48:12;;;;;;;2.35;1.05;;;;;;;;;;5014195;28;20025;-79
2023/04/22 12:50:38;;;;;;;1.92;1.17;;;;;;;;;;5032176;28;20021;-76
2023/04/22 12:53:04;;;;;;;1.92;1.45;;;;;;;;;;5032364;28;20037;-76
2023/04/22 12:55:30;;;;;;;2.45;1.70;;;;;;;;;;5032269;28;20049;-76
2023/04/22 12:57:56;;;;;;;1.95;1.17;;;;;;;;;;5031811;28;20025;-77
2023/04/22 13:00:23;;;;;;;0.80;0.80;;;;;;;;;;5013469;28;20140;-76
2023/04/22 13:02:49;;;;;;;2.47;1.00;;;;;;;;;;5014199;28;20044;-76
2023/04/22 13:05:16;;;;;;;3.50;1.30;;;;;;;;;;5031805;28;20029;-77
2023/04/22 13:07:42;;;;;;;2.97;1.00;;;;;;;;;;5032135;28;20420;-77
2023/04/22 13:10:09;;;;;;;1.60;1.10;;;;;;;;;;5014161;28;20021;-78
2023/04/22 13:12:35;;;;;;;3.80;1.25;;;;;;;;;;5031692;28;20025;-77
2023/04/22 13:15:02;;;;;;;1.45;1.00;;;;;;;;;;5031696;28;20022;-78
2023/04/22 13:17:28;;;;;;;1.60;1.50;;;;;;;;;;5031987;28;20117;-77
2023/04/22 13:19:54;;;;;;;9.95;1.88;;;;;;;;;;5031376;28;20239;-77
2023/04/22 13:22:20;;;;;;;1.42;1.23;;;;;;;;;;5031745;28;20030;-78
2023/04/22 13:24:46;;;;;;;1.27;0.93;;;;;;;;;;5031952;28;20021;-78
2023/04/22 13:27:12;;;;;;;0.90;0.90;;;;;;;;;;5013738;28;20402;-79
2023/04/22 13:29:38;;;;;;;0.77;0.77;;;;;;;;;;5031520;28;20033;-77
2023/04/22 13:32:04;;;;;;;0.60;0.60;;;;;;;;;;5013718;28;20025;-77
2023/04/22 13:34:30;;;;;;;1.00;1.00;;;;;;;;;;5013426;28;20131;-77
2023/04/22 13:36:57;;;;;;;3.67;0.93;;;;;;;;;;5013523;28;20021;-78
2023/04/22 13:39:24;;;;;;;1.95;0.85;;;;;;;;;;5031339;28;20661;-78
2023/04/22 13:41:50;;;;;;;1.20;0.90;;;;;;;;;;5013242;28;20026;-78
2023/04/22 13:44:16;;;;;;;1.58;1.00;;;;;;;;;;5013661;28;20025;-77
2023/04/22 13:46:42;;;;;;;1.45;1.10;;;;;;;;;;5031164;28;20427;-77
2023/04/22 13:49:09;;;;;;;0.88;0.82;;;;;;;;;;5014437;28;20073;-78
2023/04/22 13:51:38;;;;;;;1.20;1.08;;;;;;;;;;5032808;28;20033;-77
2023/04/22 13:54:05;;;;;;;1.90;1.27;;;;;;;;;;5013468;28;20123;-76
2023/04/22 13:56:32;;;;;;;1.20;1.00;;;;;;;;;;5013595;28;20033;-77
2023/04/22 13:58:58;;;;;;;4.72;1.70;;;;;;;;;;5013653;28;20075;-77
2023/04/22 14:01:24;;;;;;;7.10;2.50;;;;;;;;;;5014286;28;20103;-76
2023/04/22 14:03:51;;;;;;;3.08;1.63;;;;;;;;;;5031199;28;20043;-76
2023/04/22 14:06:17;;;;;;;4.22;1.40;;;;;;;;;;5030844;28;20057;-79
2023/04/22 14:08:44;;;;;;;2.20;1.10;;;;;;;;;;5012979;28;20032;-77
2023/04/22 14:11:10;;;;;;;3.25;0.98;;;;;;;;;;5031775;28;20029;-77
2023/04/22 14:13:36;;;;;;;11.15;1.05;;;;;;;;;;5014013;28;20033;-77
2023/04/22 14:16:06;;;;;;;5.60;1.30;;;;;;;;;;5013672;28;20017;-78
2023/04/22 14:18:35;;;;;;;2.70;1.10;;;;;;;;;;5013309;28;20438;-78
2023/04/22 14:21:09;;;;;;;1.73;1.30;;;;;;;;;;5109057;27;20729;-78
2023/04/22 14:23:38;;;;;;;1.95;1.48;;;;;;;;;;5107513;28;20024;-76
2023/04/22 14:26:05;;;;;;;1.80;1.55;;;;;;;;;;5097746;28;20025;-76
2023/04/22 14:28:32;;;;;;;2.03;1.00;;;;;;;;;;5087806;28;20043;-79
2023/04/22 14:30:58;;;;;;;1.67;1.13;;;;;;;;;;5099847;28;20027;-78
2023/04/22 14:33:24;;;;;;;4.15;1.25;;;;;;;;;;5107245;28;20337;-77
2023/04/22 14:35:51;;;;;;;1.63;1.08;;;;;;;;;;5106752;28;20042;-76
2023/04/22 14:38:17;;;;;;;1.63;1.10;;;;;;;;;;5107970;28;20488;-77
2023/04/22 14:40:43;;;;;;;1.20;1.10;;;;;;;;;;5106993;28;20047;-77